Time;durP1;ratioP1;P1;durP2;ratioP2;P2;SDS_P1;SDS_P2;PMS_P1;PMS_P2;Temp;Humidity;BMP_temperature;BMP_pressure;BME280_temperature;BME280_humidity;BME280_pressure;Samples;Min_cycle;Max_cycle;Signal;HPM_P1;HPM_P2
2022/05/30 00:01:42;;;;;;;6.10;2.20;;;;;;;13.88;53.08;101303.06;4979434;28;114545;-72
2022/05/30 00:04:09;;;;;;;6.00;1.83;;;;;;;13.86;52.94;101294.31;4994731;28;114353;-72
2022/05/30 00:06:36;;;;;;;4.40;2.00;;;;;;;13.83;52.98;101295.34;4978563;28;123681;-72
2022/05/30 00:09:03;;;;;;;4.90;2.10;;;;;;;13.81;52.97;101298.06;4978913;28;123600;-72
2022/05/30 00:11:31;;;;;;;4.25;1.70;;;;;;;13.78;53.02;101292.88;4985067;28;113744;-72
2022/05/30 00:13:58;;;;;;;6.22;1.90;;;;;;;13.76;53.00;101286.78;4983053;28;114415;-72
2022/05/30 00:16:25;;;;;;;6.75;1.80;;;;;;;13.77;53.27;101291.19;4986456;28;125346;-72
2022/05/30 00:18:53;;;;;;;4.25;1.95;;;;;;;13.77;53.15;101288.53;4979858;28;124892;-72
2022/05/30 00:21:23;;;;;;;5.60;1.77;;;;;;;13.79;53.21;101277.81;4996697;28;114534;-72
2022/05/30 00:23:53;;;;;;;5.47;1.88;;;;;;;13.78;53.10;101284.91;4976957;28;114911;-72
2022/05/30 00:26:22;;;;;;;6.80;1.85;;;;;;;13.79;53.19;101289.31;4979373;28;123963;-72
2022/05/30 00:28:50;;;;;;;4.90;1.85;;;;;;;13.81;53.19;101271.44;4974596;28;124070;-72
2022/05/30 00:31:18;;;;;;;4.38;2.17;;;;;;;13.83;53.29;101280.22;4995518;28;113634;-72
2022/05/30 00:33:47;;;;;;;7.15;1.98;;;;;;;13.84;53.19;101281.06;4980633;28;114173;-72
2022/05/30 00:36:14;;;;;;;6.57;2.08;;;;;;;13.85;53.24;101276.63;4976884;28;124113;-72
2022/05/30 00:38:42;;;;;;;5.28;2.00;;;;;;;13.85;53.13;101277.47;4979021;28;124734;-72
2022/05/30 00:41:09;;;;;;;5.20;2.13;;;;;;;13.85;53.21;101276.63;4971967;28;113224;-72
2022/05/30 00:43:39;;;;;;;4.03;2.10;;;;;;;13.82;53.18;101273.19;4975565;28;114055;-72
2022/05/30 00:46:16;;;;;;;5.30;2.10;;;;;;;13.83;53.27;101274.88;4975524;28;123952;-72
2022/05/30 00:48:54;;;;;;;6.15;1.90;;;;;;;13.83;53.28;101274.88;4976903;28;124942;-72
2022/05/30 00:51:32;;;;;;;5.63;2.20;;;;;;;13.81;53.33;101271.44;4977737;28;114688;-72
2022/05/30 00:54:01;;;;;;;6.53;2.17;;;;;;;13.81;53.26;101271.44;4977387;28;113802;-72
2022/05/30 00:56:32;;;;;;;5.28;2.03;;;;;;;13.79;53.41;101268.00;4978758;28;123967;-72
2022/05/30 00:59:01;;;;;;;6.53;1.92;;;;;;;13.78;53.27;101271.59;4979140;28;123687;-72
2022/05/30 01:01:30;;;;;;;6.97;2.33;;;;;;;13.74;53.42;101275.34;4996259;28;114222;-72
2022/05/30 01:06:47;;;;;;;3.75;1.90;;;;;;;13.69;53.57;101277.38;4979282;28;124724;-72
2022/05/30 01:09:17;;;;;;;3.97;1.90;;;;;;;13.66;53.54;101277.56;4974618;28;124219;-72
2022/05/30 01:12:05;;;;;;;6.13;2.30;;;;;;;13.63;53.57;101277.72;4959469;28;114357;-72
2022/05/30 01:14:35;;;;;;;6.60;2.20;;;;;;;13.60;53.59;101264.56;4985527;28;114269;-72
2022/05/30 01:17:06;;;;;;;7.20;2.33;;;;;;;13.58;53.86;101269.97;4971096;28;123461;-72
2022/05/30 01:19:46;;;;;;;5.97;2.28;;;;;;;13.56;53.75;101261.22;4974998;28;123848;-70
2022/05/30 01:22:25;;;;;;;6.13;1.83;;;;;;;13.55;53.79;101269.25;4973728;28;114577;-70
2022/05/30 01:25:20;;;;;;;6.18;2.10;;;;;;;13.53;53.69;101268.47;4971599;28;113306;-70
2022/05/30 01:28:26;;;;;;;4.82;1.60;;;;;;;13.48;53.83;101265.19;4977844;28;125435;-70
2022/05/30 01:30:54;;;;;;;5.35;2.33;;;;;;;13.44;54.01;101268.00;4974376;28;123584;-70
2022/05/30 01:33:21;;;;;;;6.68;2.22;;;;;;;13.43;53.90;101276.94;4993300;28;113780;-71
2022/05/30 01:35:49;;;;;;;7.35;2.03;;;;;;;13.41;53.93;101273.47;4977478;28;114030;-70
2022/05/30 01:38:16;;;;;;;3.58;1.95;;;;;;;13.39;53.90;101270.03;4974366;28;123592;-71
2022/05/30 01:40:48;;;;;;;5.97;2.20;;;;;;;13.39;54.01;101270.03;4970788;28;123185;-71
2022/05/30 01:43:16;;;;;;;4.30;2.10;;;;;;;13.38;54.13;101262.97;4988771;28;114076;-71
2022/05/30 01:45:46;;;;;;;10.23;2.47;;;;;;;13.38;54.40;101262.97;4990253;28;113444;-71
2022/05/30 01:48:14;;;;;;;6.45;2.05;;;;;;;13.37;54.43;101255.97;4974687;28;123325;-71
2022/05/30 01:50:41;;;;;;;6.10;2.10;;;;;;;13.38;54.32;101256.81;4970792;28;124161;-71
2022/05/30 01:53:19;;;;;;;5.57;2.15;;;;;;;13.37;54.13;101263.94;4978627;28;114598;-71
2022/05/30 01:56:09;;;;;;;4.95;2.10;;;;;;;13.37;54.40;101250.63;4979456;28;114052;-71
2022/05/30 01:58:36;;;;;;;5.80;2.10;;;;;;;13.36;54.53;101254.22;4972465;28;123783;-71
2022/05/30 02:01:27;;;;;;;6.95;2.45;;;;;;;13.32;54.52;101247.34;4970272;28;124823;-71
2022/05/30 02:03:58;;;;;;;5.68;2.20;;;;;;;13.32;54.27;101250.00;4973702;28;114818;-71
2022/05/30 02:06:28;;;;;;;6.25;2.10;;;;;;;13.31;54.32;101240.28;4971819;28;114713;-71
2022/05/30 02:08:55;;;;;;;4.70;2.08;;;;;;;13.28;54.42;101243.09;4971051;28;123581;-71
2022/05/30 02:11:27;;;;;;;4.90;2.10;;;;;;;13.28;54.21;101243.09;4987777;28;123624;-71
2022/05/30 02:14:10;;;;;;;4.07;2.30;;;;;;;13.24;54.19;101236.16;4960929;28;113690;-71
2022/05/30 02:19:23;;;;;;;5.45;2.00;;;;;;;13.19;54.29;101235.56;4969285;28;123351;-71
2022/05/30 02:21:50;;;;;;;4.32;2.05;;;;;;;13.16;54.29;101241.88;4988341;28;123541;-71
2022/05/30 02:24:18;;;;;;;4.28;2.10;;;;;;;13.15;54.45;101239.31;4987194;28;115697;-71
2022/05/30 02:26:45;;;;;;;7.65;2.20;;;;;;;13.13;54.38;101235.84;4985549;28;113389;-71
2022/05/30 02:29:17;;;;;;;3.95;2.15;;;;;;;13.11;54.67;101243.03;4969391;28;124182;-71
2022/05/30 02:31:54;;;;;;;7.75;2.40;;;;;;;13.08;54.20;101243.19;4989081;28;123385;-71
2022/05/30 02:37:09;;;;;;;4.68;2.20;;;;;;;13.00;54.32;101236.47;4972148;28;113619;-71
2022/05/30 02:39:38;;;;;;;6.30;2.47;;;;;;;12.97;54.29;101236.59;4989825;28;123291;-71
2022/05/30 02:42:23;;;;;;;6.37;2.40;;;;;;;12.94;54.44;101236.75;4971179;28;124180;-71
2022/05/30 02:44:51;;;;;;;4.38;2.53;;;;;;;12.93;54.21;101240.34;4956672;28;113534;-71
2022/05/30 02:47:18;;;;;;;9.52;2.30;;;;;;;12.90;54.31;101240.47;4985355;28;113503;-71
2022/05/30 02:49:53;;;;;;;8.20;2.50;;;;;;;12.87;54.33;101245.97;4969054;28;124094;-71
2022/05/30 02:52:20;;;;;;;6.95;2.50;;;;;;;12.84;54.20;101246.09;4986448;28;122894;-71
2022/05/30 02:54:48;;;;;;;4.55;2.60;;;;;;;12.81;54.61;101247.13;4972828;28;114394;-71
2022/05/30 02:57:21;;;;;;;3.97;2.58;;;;;;;12.79;54.52;101242.78;4982535;28;114403;-71
2022/05/30 02:59:48;;;;;;;7.88;2.75;;;;;;;12.77;54.55;101245.56;4976265;28;124607;-71
2022/05/30 03:02:16;;;;;;;5.13;2.50;;;;;;;12.76;54.60;101242.97;4983641;28;123212;-71
2022/05/30 03:04:44;;;;;;;5.68;2.25;;;;;;;12.75;54.61;101235.91;4969329;28;113871;-71
2022/05/30 03:07:12;;;;;;;6.00;2.55;;;;;;;12.74;54.55;101239.53;4991073;28;113066;-71
2022/05/30 03:09:39;;;;;;;7.57;2.92;;;;;;;12.70;54.65;101238.81;4983660;28;123494;-71
2022/05/30 03:12:27;;;;;;;8.20;2.60;;;;;;;12.69;54.48;101241.53;4987284;28;123664;-71
2022/05/30 03:14:54;;;;;;;6.97;2.58;;;;;;;12.66;54.70;101248.72;4970874;28;114475;-71
2022/05/30 03:17:21;;;;;;;9.02;3.08;;;;;;;12.64;54.69;101250.59;4970081;28;114392;-71
2022/05/30 03:19:52;;;;;;;6.95;2.75;;;;;;;12.60;54.84;101249.00;4982990;28;123708;-71
2022/05/30 03:22:21;;;;;;;5.88;2.65;;;;;;;12.56;54.79;101252.72;4981816;28;123191;-71
2022/05/30 03:25:06;;;;;;;;;;;;;;;12.48;54.35;101254.88;4974215;28;115185;-71
2022/05/30 03:27:33;;;;;;;5.72;2.60;;;;;;;12.45;54.31;101247.03;4969950;28;113169;-71
2022/05/30 03:30:00;;;;;;;7.07;3.08;;;;;;;12.40;54.50;101246.41;4971514;28;122588;-71
2022/05/30 03:32:28;;;;;;;4.97;2.83;;;;;;;12.37;54.72;101257.16;4994547;28;122757;-71
2022/05/30 03:34:55;;;;;;;5.43;2.85;;;;;;;12.33;54.81;101255.59;4986510;28;113384;-71
2022/05/30 03:37:22;;;;;;;7.00;2.92;;;;;;;12.32;54.78;101251.19;4983576;28;113850;-71
2022/05/30 03:39:56;;;;;;;6.55;2.85;;;;;;;12.26;54.46;101255.88;4986029;28;123917;-71
2022/05/30 03:42:43;;;;;;;5.28;2.65;;;;;;;12.23;54.85;101249.84;4984269;28;123797;-71
2022/05/30 03:45:18;;;;;;;;;;;;;;;12.18;54.55;101250.03;4983840;28;115513;-71
2022/05/30 03:47:47;;;;;;;7.90;2.92;;;;;;;12.17;54.74;101261.59;4977596;28;114520;-71
2022/05/30 03:50:18;;;;;;;6.70;3.17;;;;;;;12.13;54.63;101260.03;4982824;28;123771;-71
2022/05/30 03:52:46;;;;;;;4.07;2.70;;;;;;;12.11;54.66;101259.25;4973116;28;124620;-71
2022/05/30 03:55:19;;;;;;;6.85;3.10;;;;;;;12.08;54.89;101262.03;4983661;28;113659;-71
2022/05/30 03:57:46;;;;;;;6.38;2.63;;;;;;;12.07;55.05;101261.16;4967764;28;114087;-71
2022/05/30 04:00:20;;;;;;;4.75;2.80;;;;;;;12.05;54.86;101264.78;4972748;28;122080;-71
2022/05/30 04:02:53;;;;;;;5.95;2.97;;;;;;;12.05;54.92;101262.13;4984529;28;123391;-71
2022/05/30 04:05:21;;;;;;;5.65;3.40;;;;;;;12.06;55.15;101263.88;4974649;28;114226;-71
2022/05/30 04:07:48;;;;;;;7.00;3.00;;;;;;;12.06;55.12;101258.56;4974855;28;113105;-70
2022/05/30 04:10:36;;;;;;;7.65;3.22;;;;;;;12.07;55.55;101255.84;4975724;28;124268;-71
2022/05/30 04:13:22;;;;;;;6.95;3.15;;;;;;;12.09;55.68;101253.09;4981043;28;124605;-70
2022/05/30 04:16:18;;;;;;;7.18;3.00;;;;;;;12.11;55.41;101251.28;4998120;28;113680;-71
2022/05/30 04:18:47;;;;;;;6.25;2.92;;;;;;;12.15;55.68;101247.53;4978090;28;114214;-70
2022/05/30 04:21:14;;;;;;;9.02;3.10;;;;;;;12.17;55.55;101250.97;4969063;28;123188;-71
2022/05/30 04:23:42;;;;;;;8.77;3.45;;;;;;;12.20;55.73;101250.81;4990151;28;123397;-71
2022/05/30 04:26:15;;;;;;;7.78;3.60;;;;;;;12.22;55.96;101243.69;4978556;28;113223;-71
2022/05/30 04:28:47;;;;;;;7.72;3.03;;;;;;;12.25;55.85;101248.84;4995111;28;113422;-71
2022/05/30 04:31:34;;;;;;;6.97;3.00;;;;;;;12.29;55.91;101251.34;4988312;28;124167;-71
2022/05/30 04:34:02;;;;;;;6.75;2.92;;;;;;;12.31;55.67;101252.16;4991130;28;122930;-71
2022/05/30 04:36:29;;;;;;;5.95;3.15;;;;;;;12.31;55.91;101246.84;4979870;28;116014;-71
2022/05/30 04:38:57;;;;;;;11.55;3.08;;;;;;;12.34;55.78;101252.00;4988335;28;114646;-71
2022/05/30 04:41:42;;;;;;;;;;;;;;;12.33;55.35;101255.59;4974776;28;124727;-71
2022/05/30 04:44:29;;;;;;;;;;;;;;;12.34;55.23;101252.00;4975077;28;124336;-71
2022/05/30 04:47:36;;;;;;;5.13;2.88;;;;;;;12.37;55.64;101254.50;4986675;28;113010;-71
2022/05/30 04:50:04;;;;;;;5.75;2.90;;;;;;;12.40;55.73;101257.03;4987862;28;113870;-71
2022/05/30 04:52:33;;;;;;;6.28;2.97;;;;;;;12.49;56.21;101256.63;4958721;28;123634;-71
2022/05/30 04:55:18;;;;;;;6.47;2.88;;;;;;;12.60;56.37;101264.06;4993403;28;123245;-71
2022/05/30 04:57:53;;;;;;;11.00;3.25;;;;;;;12.74;56.42;101260.78;4975348;28;113918;-71
2022/05/30 05:00:38;;;;;;;9.68;3.30;;;;;;;12.83;56.21;101268.31;4975133;28;114662;-71
2022/05/30 05:03:08;;;;;;;8.48;2.83;;;;;;;12.92;56.22;101262.56;4972294;28;123364;-71
2022/05/30 05:05:35;;;;;;;9.65;3.80;;;;;;;12.99;56.22;101269.28;4987767;28;124175;-71
2022/05/30 05:08:15;;;;;;;5.78;3.22;;;;;;;13.07;56.44;101268.06;4974474;28;114179;-71
2022/05/30 05:11:13;;;;;;;6.95;3.35;;;;;;;13.11;56.05;101269.63;4995576;28;113684;-71
2022/05/30 05:13:58;;;;;;;6.38;3.30;;;;;;;13.14;56.02;101270.34;4979748;28;124696;-71
2022/05/30 05:16:52;;;;;;;5.00;3.30;;;;;;;13.18;55.92;101276.38;4979172;28;124109;-71
2022/05/30 05:19:19;;;;;;;8.18;3.10;;;;;;;13.21;55.88;101271.78;4999095;28;112685;-71
2022/05/30 05:21:46;;;;;;;7.68;3.30;;;;;;;13.26;55.77;101279.53;4982994;28;113701;-71
2022/05/30 05:24:15;;;;;;;12.13;4.38;;;;;;;13.30;55.79;101281.13;4982492;28;125212;-73
2022/05/30 05:27:16;;;;;;;8.85;3.80;;;;;;;13.37;55.70;101282.56;4981260;28;123711;-73
2022/05/30 05:29:43;;;;;;;7.18;3.22;;;;;;;13.43;55.48;101284.06;4983652;28;115115;-72
2022/05/30 05:32:11;;;;;;;6.53;2.65;;;;;;;13.49;55.60;101285.56;4984738;28;114120;-72
2022/05/30 05:34:38;;;;;;;5.45;2.80;;;;;;;13.56;55.22;101286.94;4998053;28;123551;-73
2022/05/30 05:37:06;;;;;;;5.35;2.65;;;;;;;13.65;55.35;101286.47;4995701;28;123164;-72
2022/05/30 05:40:03;;;;;;;3.72;2.00;;;;;;;13.73;55.22;101284.31;4981022;28;115211;-73
2022/05/30 05:42:30;;;;;;;6.40;2.42;;;;;;;13.80;54.83;101280.34;4977710;28;113729;-73
2022/05/30 05:44:57;;;;;;;6.20;2.33;;;;;;;13.87;54.91;101290.72;4987658;28;123559;-72
2022/05/30 05:47:24;;;;;;;6.18;2.58;;;;;;;13.94;54.70;101292.13;4982620;28;123112;-72
2022/05/30 05:49:57;;;;;;;5.15;2.30;;;;;;;13.98;54.51;101283.03;4985150;28;113872;-73
2022/05/30 05:52:28;;;;;;;7.05;2.30;;;;;;;14.05;54.68;101288.88;4978889;28;114142;-74
2022/05/30 05:54:58;;;;;;;4.30;1.85;;;;;;;14.12;54.27;101291.13;5004302;28;123239;-72
2022/05/30 05:57:25;;;;;;;7.32;2.15;;;;;;;14.20;54.26;101294.28;4979570;28;123455;-72
2022/05/30 05:59:53;;;;;;;5.40;2.20;;;;;;;14.27;53.96;101288.63;4986112;28;113544;-70
2022/05/30 06:02:22;;;;;;;7.32;2.08;;;;;;;14.32;53.92;101291.91;4981791;28;113097;-71
2022/05/30 06:04:53;;;;;;;3.05;1.70;;;;;;;14.40;53.71;101295.00;4986204;28;124000;-70
2022/05/30 06:07:20;;;;;;;5.53;1.98;;;;;;;14.48;53.75;101303.44;4980356;28;124227;-71
2022/05/30 06:10:04;;;;;;;4.68;2.08;;;;;;;14.54;53.39;101303.13;4984900;28;113859;-71
2022/05/30 06:12:42;;;;;;;6.25;1.77;;;;;;;14.62;53.16;101291.19;4983076;28;113209;-71
2022/05/30 06:15:13;;;;;;;3.85;1.60;;;;;;;14.72;53.06;101295.09;4995198;28;122441;-71
2022/05/30 06:18:01;;;;;;;4.03;1.60;;;;;;;14.82;53.16;101296.28;4976389;28;123099;-72
2022/05/30 06:20:28;;;;;;;3.80;1.80;;;;;;;14.93;53.09;101299.22;4976715;28;114448;-71
2022/05/30 06:22:55;;;;;;;3.80;2.03;;;;;;;15.05;53.12;101296.81;4976860;28;114789;-71
2022/05/30 06:25:42;;;;;;;3.67;1.70;;;;;;;15.17;52.99;101294.31;4981302;28;124616;-71
2022/05/30 06:28:29;;;;;;;6.70;1.80;;;;;;;15.31;52.66;101298.88;4980804;28;124549;-72
2022/05/30 06:31:17;;;;;;;5.07;1.90;;;;;;;15.43;52.64;101307.13;4983832;28;112764;-72
2022/05/30 06:33:49;;;;;;;2.80;1.60;;;;;;;15.57;52.63;101304.47;4996332;28;113221;-72
2022/05/30 06:36:30;;;;;;;6.68;1.70;;;;;;;15.71;52.02;101306.34;4996600;28;123606;-72
2022/05/30 06:38:57;;;;;;;3.78;1.60;;;;;;;15.81;51.83;101304.03;4959590;28;122648;-71
2022/05/30 06:41:33;;;;;;;4.97;1.70;;;;;;;15.92;51.83;101298.91;4983467;28;112438;-72
2022/05/30 06:44:06;;;;;;;3.70;1.70;;;;;;;16.08;51.92;101307.69;4966298;28;113292;-72
2022/05/30 06:46:52;;;;;;;2.72;1.35;;;;;;;16.26;51.66;101302.19;4983585;28;124548;-72
2022/05/30 06:49:50;;;;;;;2.78;1.30;;;;;;;16.40;51.28;101309.34;4941820;28;125029;-72
2022/05/30 06:52:23;;;;;;;4.35;1.30;;;;;;;16.53;51.20;101300.44;4979287;28;114197;-71
2022/05/30 06:54:51;;;;;;;2.88;1.30;;;;;;;16.66;50.89;101310.38;4973699;28;113123;-71
2022/05/30 07:00:05;;;;;;;2.83;0.95;;;;;;;16.95;50.30;101310.38;4978526;28;123505;-71
2022/05/30 07:02:37;;;;;;;4.85;0.95;;;;;;;17.06;49.90;101307.84;4991096;28;114109;-72
2022/05/30 07:05:23;;;;;;;2.70;1.00;;;;;;;17.17;49.77;101308.03;4978673;28;114386;-72
2022/05/30 07:08:09;;;;;;;3.30;1.15;;;;;;;17.23;49.35;101309.44;4989119;28;124790;-72
2022/05/30 07:10:51;;;;;;;2.80;1.15;;;;;;;17.25;48.84;101308.41;4983076;28;122600;-72
2022/05/30 07:13:20;;;;;;;3.63;1.60;;;;;;;17.25;48.66;101312.88;4979744;28;114862;-72
2022/05/30 07:15:51;;;;;;;4.03;1.13;;;;;;;17.23;48.04;101318.31;5004335;28;114569;-71
2022/05/30 07:18:29;;;;;;;3.55;1.27;;;;;;;17.18;48.00;101317.78;5016627;28;123619;-71
2022/05/30 07:21:04;;;;;;;2.60;1.38;;;;;;;17.18;48.28;101316.91;5005919;28;122749;-71
2022/05/30 07:23:33;;;;;;;3.30;1.33;;;;;;;17.21;47.98;101317.56;5003903;28;113842;-71
2022/05/30 07:26:21;;;;;;;3.25;1.20;;;;;;;17.26;48.07;101310.09;4997122;28;114530;-71
2022/05/30 07:29:08;;;;;;;2.05;1.27;;;;;;;17.38;47.93;101310.25;4976514;28;124646;-72
2022/05/30 07:31:58;;;;;;;1.63;0.90;;;;;;;17.49;47.73;101310.41;4976784;28;124302;-72
2022/05/30 07:34:45;;;;;;;3.28;1.00;;;;;;;17.65;48.19;101304.84;4977126;28;115033;-71
2022/05/30 07:37:34;;;;;;;2.63;0.75;;;;;;;17.83;47.75;101303.59;4975713;28;113324;-72
2022/05/30 07:40:12;;;;;;;4.22;1.30;;;;;;;18.01;47.73;101309.56;4989839;28;123693;-72
2022/05/30 07:42:53;;;;;;;2.45;0.73;;;;;;;18.18;47.03;101307.56;4979546;28;123652;-71
2022/05/30 07:45:47;;;;;;;2.45;0.80;;;;;;;18.33;46.91;101300.22;4998237;28;113701;-72
2022/05/30 07:48:38;;;;;;;3.13;0.70;;;;;;;18.49;46.51;101307.09;4969853;28;114446;-71
2022/05/30 07:51:28;;;;;;;2.25;0.85;;;;;;;18.62;46.04;101303.53;4961151;28;124461;-72
2022/05/30 07:54:11;;;;;;;2.33;0.75;;;;;;;18.66;45.72;101302.34;4987754;28;123489;-71
2022/05/30 07:56:47;;;;;;;2.53;1.00;;;;;;;18.63;45.38;101307.94;4986808;28;114412;-72
2022/05/30 07:59:14;;;;;;;4.03;0.90;;;;;;;18.58;45.02;101304.72;4960483;28;113272;-71
2022/05/30 08:01:41;;;;;;;2.67;0.80;;;;;;;18.52;44.72;101305.19;4975724;28;123941;-72
2022/05/30 08:04:13;;;;;;;2.78;0.70;;;;;;;18.44;44.28;101309.25;4991958;28;123661;-71
2022/05/30 08:06:43;;;;;;;5.63;0.90;;;;;;;18.37;44.09;101302.59;4974673;28;116391;-71
2022/05/30 08:09:33;;;;;;;2.25;0.90;;;;;;;18.33;44.31;101306.47;4974674;28;114584;-72
2022/05/30 08:12:12;;;;;;;1.33;0.70;;;;;;;18.36;43.83;101306.25;4988428;28;123627;-71
2022/05/30 08:15:02;;;;;;;2.13;0.60;;;;;;;18.38;43.94;101298.94;4976035;28;123415;-72
2022/05/30 08:17:56;;;;;;;2.13;0.73;;;;;;;18.36;43.32;101300.88;4990155;28;114488;-72
2022/05/30 08:20:27;;;;;;;2.88;0.80;;;;;;;18.35;43.24;101299.19;4974899;28;113982;-72
2022/05/30 08:22:54;;;;;;;1.60;0.60;;;;;;;18.31;43.05;101299.47;4977028;28;123284;-71
2022/05/30 08:25:23;;;;;;;3.17;0.73;;;;;;;18.28;43.26;101303.25;4976443;28;123300;-72
2022/05/30 08:27:50;;;;;;;1.67;0.60;;;;;;;18.31;43.22;101308.41;4975916;28;114459;-71
2022/05/30 08:30:20;;;;;;;4.95;0.80;;;;;;;18.33;43.16;101306.47;4980772;28;113341;-71
2022/05/30 08:33:13;;;;;;;2.83;0.80;;;;;;;18.35;43.27;101303.69;4993417;28;123149;-71
2022/05/30 08:36:01;;;;;;;3.05;0.70;;;;;;;18.37;43.43;101307.97;4978409;28;125074;-72
2022/05/30 08:38:33;;;;;;;2.60;0.70;;;;;;;18.40;43.00;101302.41;4980691;28;113478;-71
2022/05/30 08:43:52;;;;;;;3.10;1.00;;;;;;;18.48;42.83;101313.44;4980067;28;124507;-73
2022/05/30 08:47:02;;;;;;;5.90;0.95;;;;;;;18.54;42.93;101313.97;4933269;28;124926;-72
2022/05/30 08:49:48;;;;;;;2.88;0.90;;;;;;;18.58;42.99;101310.94;4984636;28;113900;-72
2022/05/30 08:53:00;;;;;;;2.90;0.90;;;;;;;18.66;42.70;101307.72;4990453;28;113677;-72
2022/05/30 08:56:06;;;;;;;2.83;0.75;;;;;;;18.72;42.87;101306.41;4974689;28;123717;-71
2022/05/30 08:59:02;;;;;;;;;;;;;;;18.79;43.82;101308.53;4963054;28;123839;-72
2022/05/30 09:01:36;;;;;;;2.75;0.80;;;;;;;18.94;43.23;101311.97;4999327;28;114941;-72
2022/05/30 09:04:43;;;;;;;4.13;0.95;;;;;;;19.09;42.96;101310.00;4990747;28;115594;-72
2022/05/30 09:07:16;;;;;;;2.92;0.90;;;;;;;19.18;42.08;101319.22;4990316;28;125194;-72
2022/05/30 09:09:52;;;;;;;2.05;0.98;;;;;;;19.16;42.21;101305.91;4989187;28;122943;-72
2022/05/30 09:12:31;;;;;;;3.65;1.10;;;;;;;19.11;42.33;101321.47;4974500;28;114513;-72
2022/05/30 09:15:22;;;;;;;4.07;1.07;;;;;;;19.06;42.38;101315.56;4969992;28;114079;-72
2022/05/30 09:18:03;;;;;;;2.35;1.02;;;;;;;19.00;42.08;101321.41;4969047;28;123053;-72
2022/05/30 09:20:32;;;;;;;4.22;1.20;;;;;;;18.91;41.95;101319.38;4975729;28;123142;-71
2022/05/30 09:23:04;;;;;;;4.57;1.30;;;;;;;18.81;41.96;101317.38;4984133;28;113619;-71
2022/05/30 09:25:56;;;;;;;2.40;0.93;;;;;;;18.71;41.91;101318.97;4995160;28;113743;-69
2022/05/30 09:28:45;;;;;;;3.88;1.23;;;;;;;18.60;42.23;101329.63;4984285;28;124870;-70
2022/05/30 09:31:49;;;;;;;3.38;1.10;;;;;;;18.53;42.53;101317.59;4977384;28;124670;-69
2022/05/30 09:34:33;;;;;;;3.30;1.15;;;;;;;18.52;42.65;101321.28;4979255;28;115420;-70
2022/05/30 09:37:27;;;;;;;2.53;1.10;;;;;;;18.49;42.41;101328.53;4979773;28;115025;-69
2022/05/30 09:40:05;;;;;;;3.15;1.10;;;;;;;18.44;42.60;101329.84;4979445;28;123635;-69
2022/05/30 09:42:37;;;;;;;5.57;1.20;;;;;;;18.41;42.67;101330.91;4977761;28;123652;-70
2022/05/30 09:45:11;;;;;;;3.55;1.20;;;;;;;18.42;42.66;101332.66;4970807;28;113285;-69
2022/05/30 09:47:58;;;;;;;3.53;1.10;;;;;;;18.46;42.83;101328.78;4985093;28;114445;-70
2022/05/30 09:50:41;;;;;;;3.28;1.23;;;;;;;18.54;42.81;101319.34;4972792;28;123111;-70
2022/05/30 09:53:09;;;;;;;4.35;1.10;;;;;;;18.57;42.76;101322.66;4988194;28;123138;-71
2022/05/30 09:55:43;;;;;;;3.92;1.13;;;;;;;18.61;42.62;101320.59;4972044;28;114674;-70
2022/05/30 09:58:14;;;;;;;3.35;1.40;;;;;;;18.65;42.60;101328.31;5005801;28;114369;-69
2022/05/30 10:00:57;;;;;;;7.10;1.30;;;;;;;18.68;42.60;101328.13;4988356;28;123101;-70
2022/05/30 10:03:37;;;;;;;3.08;1.30;;;;;;;18.73;42.49;101325.09;4985077;28;123373;-70
2022/05/30 10:06:23;;;;;;;4.10;1.15;;;;;;;18.78;42.64;101328.31;4970810;28;115403;-70
2022/05/30 10:09:15;;;;;;;2.35;1.20;;;;;;;18.85;42.61;101335.00;4968331;28;114509;-69
2022/05/30 10:11:53;;;;;;;3.87;1.30;;;;;;;18.93;42.53;101330.88;4983448;28;123929;-70
2022/05/30 10:14:28;;;;;;;2.65;1.17;;;;;;;19.03;42.24;101329.25;4969093;28;123059;-70
2022/05/30 10:17:27;;;;;;;2.75;1.15;;;;;;;19.10;42.31;101327.84;4970729;28;114811;-70
2022/05/30 10:19:57;;;;;;;4.25;1.30;;;;;;;19.19;42.08;101327.16;4968775;28;113150;-70
2022/05/30 10:29:48;;;;;;;3.33;1.23;;;;;;;19.45;41.19;101332.41;4977300;28;114814;-71
2022/05/30 10:33:13;;;;;;;3.00;1.20;;;;;;;19.46;41.70;101323.38;4973279;28;114626;-70
2022/05/30 10:36:21;;;;;;;4.20;1.10;;;;;;;19.58;41.99;101314.38;4970141;28;123308;-71
2022/05/30 10:38:55;;;;;;;5.97;1.40;;;;;;;19.73;41.82;101330.38;4971138;28;123066;-70
2022/05/30 10:41:52;;;;;;;3.80;1.60;;;;;;;19.79;41.05;101324.50;4987130;28;113737;-73
2022/05/30 10:44:44;;;;;;;3.05;1.42;;;;;;;19.82;41.39;101324.28;4977319;28;113849;-70
2022/05/30 10:47:31;;;;;;;3.22;1.40;;;;;;;19.90;40.72;101326.38;4979869;28;123882;-71
2022/05/30 10:50:04;;;;;;;3.38;1.42;;;;;;;19.98;40.04;101332.03;4999643;28;123118;-71
2022/05/30 10:53:04;;;;;;;3.10;1.30;;;;;;;19.96;39.89;101337.50;4987616;28;114317;-71
2022/05/30 10:55:54;;;;;;;4.35;1.50;;;;;;;19.99;39.72;101321.16;4987909;28;113351;-70
2022/05/30 10:58:32;;;;;;;3.08;1.50;;;;;;;20.06;40.07;101328.72;4987071;28;123677;-70
2022/05/30 11:01:22;;;;;;;2.13;1.30;;;;;;;20.14;39.55;101329.03;4986477;28;123366;-71
2022/05/30 11:04:04;;;;;;;3.25;1.60;;;;;;;20.16;39.77;101335.13;4981301;28;113249;-69
2022/05/30 11:06:37;;;;;;;2.72;1.20;;;;;;;20.19;39.33;101333.06;4985342;28;112885;-71
2022/05/30 11:09:21;;;;;;;4.10;1.30;;;;;;;20.26;39.19;101336.13;4983088;28;122949;-68
2022/05/30 11:11:57;;;;;;;5.10;1.60;;;;;;;20.33;39.45;101328.44;4976445;28;124086;-69
2022/05/30 11:15:05;;;;;;;2.45;1.48;;;;;;;20.41;39.29;101326.84;4967799;28;113330;-68
2022/05/30 11:18:23;;;;;;;3.90;1.55;;;;;;;20.51;39.83;101326.09;4986129;28;114179;-70
2022/05/30 11:21:33;;;;;;;4.03;1.38;;;;;;;20.66;39.75;101321.38;4977424;28;123271;-71
2022/05/30 11:24:03;;;;;;;3.35;1.50;;;;;;;20.83;39.69;101320.84;4989676;28;123563;-70
2022/05/30 11:27:05;;;;;;;2.20;1.45;;;;;;;21.02;39.54;101331.03;4980815;28;113304;-71
2022/05/30 11:30:04;;;;;;;3.45;1.70;;;;;;;21.10;38.30;101328.53;4991496;28;113690;-72
2022/05/30 11:32:42;;;;;;;2.70;1.67;;;;;;;21.09;38.53;101318.75;4972282;28;123678;-71
2022/05/30 11:35:35;;;;;;;3.85;1.70;;;;;;;21.11;38.33;101319.47;4979673;28;123782;-71
2022/05/30 11:38:17;;;;;;;4.63;1.77;;;;;;;21.12;38.16;101318.50;4986250;28;112965;-70
2022/05/30 11:41:04;;;;;;;4.28;1.90;;;;;;;21.19;38.73;101311.63;4983359;28;113971;-71
2022/05/30 11:43:39;;;;;;;4.60;1.60;;;;;;;21.33;38.93;101312.31;4977367;28;124164;-72
2022/05/30 11:46:29;;;;;;;4.03;1.80;;;;;;;21.47;38.69;101309.34;4989160;28;123810;-71
2022/05/30 11:49:14;;;;;;;3.92;1.80;;;;;;;21.60;38.34;101302.94;4988147;28;114356;-71
2022/05/30 11:52:00;;;;;;;2.45;1.70;;;;;;;21.74;38.08;101310.72;4981259;28;114836;-71
2022/05/30 11:55:10;;;;;;;4.35;1.77;;;;;;;21.80;38.11;101320.97;4984649;28;123776;-70
2022/05/30 11:57:47;;;;;;;3.42;1.60;;;;;;;21.85;37.89;101313.34;4961468;28;123404;-71
2022/05/30 12:00:33;;;;;;;2.10;1.40;;;;;;;21.86;37.48;101315.06;4988803;28;114617;-70
2022/05/30 12:03:15;;;;;;;3.42;1.50;;;;;;;21.87;37.43;101305.97;4978797;28;113770;-70
2022/05/30 12:06:09;;;;;;;4.18;1.67;;;;;;;21.86;37.16;101309.66;4982387;28;124628;-70
2022/05/30 12:08:54;;;;;;;3.60;1.52;;;;;;;21.86;37.33;101315.06;4990925;28;124723;-71
2022/05/30 12:11:40;;;;;;;4.35;1.67;;;;;;;21.83;36.94;101309.94;4985267;28;114555;-71
2022/05/30 12:14:22;;;;;;;2.38;1.40;;;;;;;21.74;36.68;101310.72;4983621;28;113780;-71
2022/05/30 12:17:11;;;;;;;3.70;1.65;;;;;;;21.69;36.84;101312.94;4999182;28;123676;-70
2022/05/30 12:25:35;;;;;;;4.07;1.40;;;;;;;21.61;36.65;101318.13;4971561;28;114404;-71
2022/05/30 12:28:04;;;;;;;3.33;1.50;;;;;;;21.57;36.32;101321.06;4976611;28;123392;-71
2022/05/30 12:30:34;;;;;;;4.60;1.60;;;;;;;21.48;35.98;101311.06;4974906;28;123868;-72
2022/05/30 12:33:27;;;;;;;3.58;1.50;;;;;;;21.35;36.13;101321.97;4981038;28;113688;-71
2022/05/30 12:36:17;;;;;;;2.35;1.30;;;;;;;21.19;36.40;101314.31;4985746;28;113894;-71